ADDS METAR Data INFO
IDs: Format: Raw Decoded Include TAF

Data at: 1338 UTC 23 Jun 2018

KHSP 231315Z AUTO 25010G15KT 3/4SM BR OVC002 18/18 A2998 RMK AO2 VIS 1/4V5 T01810181
KHSP 231255Z AUTO 26010KT 1/4SM -RA OVC002 18/18 A2997 RMK AO2 T01790179
KHSP 231235Z AUTO 25008KT M1/4SM -RA OVC002 18/18 A2996 RMK AO2 T01770177
KHSP 231215Z AUTO 25008KT M1/4SM -RA OVC002 18/18 A2996 RMK AO2 T01760176
KHSP 231155Z AUTO 26006KT M1/4SM -RA OVC002 18/18 A2996 RMK AO2 60020 70175 T01760176 10177 20165
KHSP 231135Z AUTO 24005KT 1 3/4SM BR OVC002 18/18 A2996 RMK AO2 VIS 1/2V5 T01770177
KHSP 231115Z AUTO 19006KT M1/4SM FG OVC002 18/18 A2995 RMK AO2 T01750175
KHSP 231055Z AUTO 18004KT 1 1/4SM BR OVC002 18/18 A2995 RMK AO2 T01750175
KHSP 231035Z AUTO 22005KT 1/2SM -RA OVC002 17/17 A2995 RMK AO2 T01730173
KHSP 231015Z AUTO 21006KT M1/4SM -RA OVC002 17/17 A2995 RMK AO2 T01730173
KHSP 230955Z AUTO 19005KT 1/4SM -RA OVC002 17/17 A2994 RMK AO2 T01730173
KHSP 230935Z AUTO 20008KT 1/4SM RA OVC002 17/17 A2995 RMK AO2 T01730173
KHSP 230915Z AUTO 19007KT 1/4SM -RA OVC002 17/17 A2994 RMK AO2 T01700170
KHSP 230855Z AUTO 18006KT M1/4SM -RA OVC002 17/17 A2994 RMK AO2 P0004 60020 T01700170
KHSP 230835Z AUTO 20006KT 1/4SM -RA OVC002 17/17 A2994 RMK AO2 P0004 T01720172
KHSP 230815Z AUTO 17004KT 3/4SM -RA OVC002 17/17 A2994 RMK AO2 T01730173
KHSP 230755Z AUTO 00000KT 1 1/4SM -RA OVC002 17/17 A2994 RMK AO2 P0016 T01700170
KHSP 230735Z AUTO 13004KT M1/4SM -RA OVC002 17/17 A2994 RMK AO2 T01700170
KHSP 230715Z AUTO 13004KT M1/4SM -RA OVC002 17/17 A2993 RMK AO2 T01700170
KHSP 230655Z AUTO 12004KT M1/4SM -RA OVC002 17/17 A2994 RMK AO2 T01690169
KHSP 230635Z AUTO 13004KT M1/4SM -RA OVC002 17/17 A2994 RMK AO2 T01680168
KHSP 230615Z AUTO 13004KT M1/4SM -RA OVC002 17/17 A2995 RMK AO2 T01660166
KHSP 230555Z AUTO 12005KT 1/4SM FG OVC002 17/17 A2995 RMK AO2 60049 T01650165 10171 20157
KHSP 230535Z AUTO 12004KT 1/4SM FG OVC002 16/16 A2995 RMK AO2 T01640164
KHSP 230515Z AUTO 14003KT 10SM BKN002 OVC100 17/17 A2996 RMK AO2 T01700170
KHSP 230455Z AUTO 15004KT 10SM SCT070 OVC110 17/17 A2996 RMK AO2 T01700170
KHSP 230435Z AUTO 14003KT 10SM SCT070 SCT120 17/17 A2996 RMK AO2 T01700170
KHSP 230415Z AUTO 13004KT 10SM SCT003 16/16 A2996 RMK AO2 T01600160
KHSP 230355Z AUTO 09003KT 10SM SCT003 16/16 A2997 RMK AO2 T01570157
KHSP 230335Z AUTO 00000KT 10SM CLR 16/16 A2997 RMK AO2 T01590159
KHSP 230315Z AUTO 00000KT 10SM SCT046 SCT070 16/16 A2996 RMK AO2 T01610161
KHSP 230255Z AUTO 11004KT 10SM SCT037 BKN045 OVC060 17/17 A2998 RMK AO2 60049 T01650165
KHSP 230235Z AUTO 00000KT 5SM -RA SCT001 BKN039 OVC060 17/17 A2998 RMK AO2 T01650165
KHSP 230215Z AUTO 09004KT 1/4SM -RA OVC001 17/17 A2998 RMK AO2 T01650165
KHSP 230155Z AUTO 07004KT 1/4SM -RA OVC001 17/17 A2997 RMK AO2 P0003 T01650165
KHSP 230135Z AUTO 09005KT 1/4SM -RA OVC001 17/17 A2996 RMK AO2 P0003 T01650165
KHSP 230115Z AUTO 07004KT 2 1/2SM RA SCT008 BKN070 OVC075 17/17 A2996 RMK AO2 VIS 1V5 LTG DSNT E P0003 T01660166
KHSP 230055Z AUTO 34006G14KT 3/4SM TSRA OVC002 17/17 A2997 RMK AO2 LTG DSNT N P0046 T01660166
KHSP 230035Z AUTO 07003KT M1/4SM TSRA OVC002 17/17 A2995 RMK AO2 LTG DSNT SW AND NW T01650165
KHSP 230015Z AUTO 10008KT M1/4SM TSRA OVC002 17/17 A2994 RMK AO2 LTG DSNT ALQS T01660166
KHSP 222355Z AUTO 08007KT M1/4SM VCTSRA OVC002 17/17 A2995 RMK AO2 LTG DSNT SW THRU NW P0026 60106 T01660166 10208 20165
KHSP 222335Z AUTO 08009KT M1/4SM +VCTSRA OVC002 17/17 A2994 RMK AO2 LTG DSNT SW THRU N P0012 T01660166
KHSP 222315Z AUTO 07008KT M1/4SM RA OVC002 17/17 A2995 RMK AO2 LTG DSNT S AND SW P0001 T01670167
KHSP 222255Z AUTO 08010KT M1/4SM RA OVC002 17/17 A2994 RMK AO2 LTG DSNT SE P0021 T01680168
KHSP 222235Z AUTO 07009G14KT M1/4SM -RA OVC002 17/17 A2994 RMK AO2 LTG DSNT S P0021 T01700170
KHSP 222215Z AUTO 08004KT M1/4SM +RA OVC002 17/17 A2995 RMK AO2 LTG DSNT S P0021 T01730173
KHSP 222155Z AUTO 07009KT M1/4SM RA OVC002 18/18 A2993 RMK AO2 LTG DSNT SE P0007 T01760176
KHSP 222135Z AUTO 08007KT M1/4SM RA OVC002 18/18 A2994 RMK AO2 LTG DSNT E T01810181
KHSP 222115Z AUTO 10005KT M1/4SM RA OVC002 18/18 A2995 RMK AO2 LTG DSNT SE AND NW T01820182
KHSP 222055Z AUTO 07007KT M1/4SM -RA OVC002 18/18 A2995 RMK AO2 LTG DSNT SE AND S P0014 60052 T01810181
KHSP 222035Z AUTO 08007KT M1/4SM RA OVC002 18/18 A2995 RMK AO2 LTG DSNT NW P0014 T01810181
KHSP 222015Z AUTO 09005KT M1/4SM +RA OVC002 18/18 A2994 RMK AO2 P0012 T01810181
KHSP 221955Z AUTO 08006KT M1/4SM RA OVC002 19/19 A2994 RMK AO2 P0038 T01870187
KHSP 221935Z AUTO 07006KT M1/4SM RA OVC002 19/19 A2994 RMK AO2 P0003 T01920192
KHSP 221915Z AUTO 06010G14KT M1/4SM -RA OVC002 20/20 A2993 RMK AO2 T01970197
KHSP 221855Z AUTO 07006KT 1/4SM FG OVC002 21/21 A2993 RMK AO2 LTG DSNT S T02060206
KHSP 221835Z AUTO 08005KT M1/4SM FG OVC002 21/21 A2994 RMK AO2 LTG DSNT SW T02050205
KHSP 221815Z AUTO 17005KT M1/4SM -RA OVC002 20/20 A2995 RMK AO2 LTG DSNT N T02030203
KHSP 221755Z AUTO 12005KT 3/4SM BR OVC004 21/21 A2995 RMK AO2 T02100210 10219 20184
KHSP 221735Z AUTO 14005KT 10SM SCT002 OVC008 21/21 A2996 RMK AO2 T02110209
KHSP 221715Z AUTO 12008KT 7SM BKN006 OVC011 22/21 A2997 RMK AO2 T02160209
KHSP 221655Z AUTO 11006KT 10SM OVC004 21/21 A2997 RMK AO2 T02090207
KHSP 221635Z AUTO 13007KT M1/4SM FG OVC002 20/20 A2998 RMK AO2 T02010201
KHSP 221615Z AUTO 00000KT M1/4SM FG OVC002 20/20 A2998 RMK AO2 T01960196
KHSP 221555Z AUTO 09004KT 10SM OVC004 20/20 A2998 RMK AO2 T02010201
KHSP 221535Z AUTO 12004KT 10SM BKN004 OVC007 20/20 A2998 RMK AO2 T02020202
KHSP 221515Z AUTO 11004KT 10SM OVC004 20/20 A2998 RMK AO2 T02010201
KHSP 221455Z AUTO 11004KT 10SM OVC002 20/20 A2998 RMK AO2 T02020202
KHSP 221435Z AUTO 12003KT 3/4SM BR OVC002 19/19 A2998 RMK AO2 VIS 1/4V5 T01910191
KHSP 221415Z AUTO 07004KT M1/4SM FG OVC002 19/19 A2998 RMK AO2 T01910191
KHSP 221355Z AUTO 13004KT M1/4SM FG OVC002 19/19 A2998 RMK AO2 T01900190
KHSP 221335Z AUTO 00000KT 4SM BR OVC002 19/19 A2999 RMK AO2 T01900190
KHSP 221315Z AUTO 15003KT 7SM BKN004 OVC009 19/19 A2998 RMK AO2 T01910191
KHSP 221255Z AUTO 00000KT 10SM OVC004 19/19 A2998 RMK AO2 T01880188
KHSP 221235Z AUTO 08003KT 10SM OVC004 19/19 A2998 RMK AO2 T01890189
KHSP 221215Z AUTO 00000KT 4SM BR OVC002 19/19 A2998 RMK AO2 LTG DSNT SW T01850185
KHSP 221155Z AUTO 00000KT 3/4SM BR OVC002 19/19 A2996 RMK AO2 6//// 7//// T01850185
KHSP 221135Z AUTO 00000KT M1/4SM -RA OVC002 19/19 A2996 RMK AO2 T01860186
KHSP 221115Z AUTO 00000KT M1/4SM RA 19/19 A2995 RMK AO2 T01850185
KHSP 220912Z AUTO 19/19 RMK AO2 PWINO TSNO
KHSP 220835Z AUTO 31005KT 1/4SM FG OVC002 19/19 A2993 RMK AO2 T01870187
KHSP 220815Z AUTO 28006KT 1/4SM FG OVC002 19/19 A2993 RMK AO2 T01860186
KHSP 220755Z AUTO 30004KT 1/2SM -RA OVC002 19/19 A2993 RMK AO2 VIS 1/4V2 1/2 T01850185
KHSP 220735Z AUTO 30006KT 1/2SM -RA OVC002 19/19 A2993 RMK AO2 T01890189
KHSP 220715Z AUTO 25006KT 1/4SM FG OVC002 19/19 A2993 RMK AO2 T01910191
KHSP 220655Z AUTO 25005KT 1/2SM FG OVC002 19/19 A2993 RMK AO2 VIS 1/4V4 T01910191
KHSP 220635Z AUTO 25006KT 1/4SM FG OVC002 19/19 A2993 RMK AO2 T01920192
KHSP 220615Z AUTO 24006KT 3/4SM BR OVC002 19/19 A2993 RMK AO2 T01910191
KHSP 220555Z AUTO 24004KT 7SM BKN004 OVC012 19/19 A2993 RMK AO2 60013 T01890189 10202 20187
KHSP 220535Z AUTO 20003KT 5SM BR SCT006 BKN012 BKN110 19/19 A2994 RMK AO2 T01870187
KHSP 220515Z AUTO 19004KT 7SM BKN110 19/19 A2995 RMK AO2 T01870187
KHSP 220455Z AUTO 20003KT 7SM BKN120 19/19 A2995 RMK AO2 T01900190 402460189
KHSP 220435Z AUTO 20003KT 10SM BKN120 19/19 A2995 RMK AO2 T01900190
KHSP 220415Z AUTO 22003KT 10SM SCT085 BKN120 19/19 A2996 RMK AO2 T01920192
KHSP 220355Z AUTO 22004KT 10SM SCT012 SCT022 OVC085 19/19 A2996 RMK AO2 T01930193
KHSP 220335Z AUTO 22004KT 10SM SCT013 BKN019 OVC024 20/20 A2996 RMK AO2 T01950195
KHSP 220315Z AUTO 21004KT 10SM OVC017 20/20 A2996 RMK AO2 LTG DSNT SE T01950195
KHSP 220255Z AUTO 21004KT 10SM BKN017 OVC021 20/20 A2996 RMK AO2 60013 T01950195
KHSP 220235Z AUTO 20003KT 7SM SCT017 SCT024 OVC034 19/19 A2997 RMK AO2 LTG DSNT S T01930193
KHSP 220215Z AUTO 20003KT 5SM BR SCT003 BKN026 OVC036 20/20 A2996 RMK AO2 T01950195
KHSP 220155Z AUTO 17003KT 4SM -DZ OVC003 20/20 A2996 RMK AO2 P0009 T01950195